Latest Weather Observations for Cooktown

IDQ60801

Issued at 7:02 pm EST Sunday 31 July 2016 (issued every 30 minutes, with the page automatically refreshed every 10 minutes)

About weather observations | Map of weather stations | Latest weather observations for QLD | Other Formats
Station Details ID: 031209 Name: COOKTOWN AIRPORT Lat: -15.45 Lon: 145.19 Height: 4.8 m
Data from the previous 72 hours. | See also: Recent months at Cooktown
Date/Time
EST
Temp
°C
App
Temp
°C
Dew
Point
°C
Rel
Hum
%
Delta-T
°C
Wind Press
QNH
hPa
Press
MSL
hPa
Rain since
9am
mm
Dir  Spd
km/h
Gust
km/h
Spd
kts
Gust
kts
31/07:00pm 24.2 24.0 19.7 76 2.9 ESE 20 32 11 17 1013.9 - 0.0
31/06:30pm 24.2 24.2 19.7 76 2.9 ESE 19 32 10 17 1013.8 - 0.0
31/06:00pm 24.4 24.0 19.4 73 3.2 ESE 20 32 11 17 1013.5 1013.5 0.0
31/05:30pm 24.5 24.2 19.5 73 3.2 ESE 20 32 11 17 1013.2 - 0.0
31/05:00pm 24.8 24.1 19.5 72 3.4 ESE 22 32 12 17 1012.8 - 0.0
31/04:30pm 25.1 24.7 19.3 70 3.7 ESE 20 33 11 18 1012.7 - 0.0
31/04:00pm 25.3 24.3 19.6 70 3.7 ESE 24 39 13 21 1012.5 - 0.0
31/03:30pm 25.6 24.9 19.4 68 4.0 SE 22 35 12 19 1012.6 - 0.0
31/03:00pm 25.5 24.4 19.4 69 3.9 SE 24 33 13 18 1012.6 1012.6 0.0
31/02:30pm 25.7 25.3 20.2 71 3.6 SE 22 33 12 18 1012.8 - 0.0
31/02:00pm 26.4 24.6 20.4 69 3.9 ESE 30 44 16 24 1012.9 - 0.0
31/01:30pm 26.6 25.4 20.0 67 4.3 SE 26 41 14 22 1013.2 - 0.0
31/01:00pm 26.1 24.5 20.1 69 3.9 SE 28 43 15 23 1013.5 - 0.0
31/12:44pm 26.3 24.8 20.2 69 4.0 SSE 28 46 15 25 1013.6 - 0.0
31/12:30pm 26.1 25.5 20.4 71 3.7 SE 24 41 13 22 1013.9 - 0.0
31/12:00pm 26.0 24.5 20.2 70 3.8 SE 28 50 15 27 1014.2 1014.2 0.0
31/11:57am 26.0 24.5 20.2 70 3.8 SE 28 50 15 27 1014.2 - 0.0
31/11:30am 26.0 24.7 20.7 72 3.5 SE 28 43 15 23 1014.7 - 0.0
31/11:18am 26.0 24.1 20.2 70 3.8 SE 30 41 16 22 1014.9 - 0.0
31/11:00am 26.2 25.1 20.2 69 3.9 SE 26 43 14 23 1015.0 - 0.0
31/10:30am 25.6 24.2 20.4 73 3.4 ESE 28 41 15 22 1015.2 - 0.0
31/10:00am 25.7 25.2 20.8 74 3.2 SE 24 39 13 21 1015.3 - 0.0
31/09:30am 24.7 24.6 20.7 78 2.6 SE 22 37 12 20 1015.3 - 0.0
31/09:00am 24.3 24.5 20.6 80 2.4 SE 20 32 11 17 1015.2 1015.2 0.0
31/08:30am 24.2 24.9 20.5 80 2.4 SE 17 24 9 13 1014.8 - 0.0
31/08:00am 23.1 24.1 20.3 84 1.8 SE 15 24 8 13 1014.5 - 0.0
31/07:30am 22.9 24.1 19.9 83 1.9 SE 13 19 7 10 1014.3 - 0.0
31/07:00am 22.7 23.8 19.7 83 1.9 SE 13 19 7 10 1014.0 - 0.0
31/06:30am 22.8 23.1 19.7 83 2.0 SSE 17 28 9 15 1013.6 - 0.0
31/06:00am 22.9 23.6 19.6 81 2.1 SE 15 22 8 12 1013.4 1013.4 0.0
31/05:30am 22.8 23.4 19.5 81 2.1 SE 15 22 8 12 1013.2 - 0.0
31/05:00am 22.6 23.6 19.5 82 2.0 SE 13 22 7 12 1013.0 - 0.0
31/04:30am 22.5 23.5 19.4 82 2.0 SE 13 20 7 11 1012.9 - 0.0
31/04:00am 22.5 23.8 19.4 82 2.0 SE 11 17 6 9 1012.9 - 0.0
31/03:30am 22.6 23.0 19.1 80 2.2 SE 15 26 8 14 1013.0 - 0.0
31/03:00am 22.5 23.0 19.2 81 2.1 SE 15 26 8 14 1013.2 1013.3 0.0
31/02:30am 22.6 23.5 19.3 81 2.1 SE 13 20 7 11 1013.4 - 0.0
31/02:00am 22.5 23.5 19.4 82 2.0 SE 13 22 7 12 1013.7 - 0.0
31/01:30am 22.5 23.5 19.5 83 1.9 SE 13 20 7 11 1013.9 - 0.0
31/01:00am 22.6 23.3 19.6 83 1.9 SE 15 26 8 14 1014.2 - 0.0
31/12:30am 22.7 23.4 19.6 82 2.0 SE 15 28 8 15 1014.4 - 0.0
31/12:00am 22.7 23.8 19.7 83 1.9 SE 13 24 7 13 1014.5 1014.4 0.0
 
Date/Time
EST
Temp
°C
App
Temp
°C
Dew
Point
°C
Rel
Hum
%
Delta-T
°C
Wind Press
QNH
hPa
Press
MSL
hPa
Rain since
9am
mm
Dir  Spd
km/h
Gust
km/h
Spd
kts
Gust
kts
30/11:30pm 22.9 23.7 19.9 83 1.9 SE 15 22 8 12 1014.7 - 0.0
30/11:00pm 23.0 23.5 20.0 83 1.9 ESE 17 28 9 15 1014.9 - 0.0
30/10:30pm 22.9 23.4 20.1 84 1.8 ESE 17 30 9 16 1015.0 - 0.0
30/10:00pm 22.8 23.7 20.0 84 1.8 SE 15 30 8 16 1015.0 - 0.0
30/09:30pm 23.0 23.2 20.2 84 1.8 SE 19 37 10 20 1015.1 - 0.0
30/09:00pm 23.0 24.0 20.2 84 1.8 SE 15 33 8 18 1015.2 1015.2 0.0
30/08:48pm 22.9 23.8 20.1 84 1.8 SE 15 30 8 16 1015.2 - 0.0
30/08:30pm 23.0 24.0 20.2 84 1.8 SE 15 32 8 17 1015.0 - 0.0
30/08:08pm 23.1 23.7 20.2 84 1.9 SE 17 28 9 15 1014.6 - 0.0
30/08:00pm 23.0 23.6 20.2 84 1.8 SE 17 28 9 15 1014.6 - 0.0
30/07:30pm 22.9 23.5 20.3 85 1.7 SE 17 28 9 15 1014.2 - 0.0
30/07:00pm 23.1 23.0 20.0 83 2.0 SE 20 30 11 16 1014.0 - 0.0
30/06:30pm 23.1 23.2 20.0 83 2.0 SE 19 35 10 19 1013.7 - 0.0
30/06:20pm 23.2 23.3 19.9 82 2.1 SE 19 28 10 15 1013.7 - 0.0
30/06:00pm 23.4 23.2 19.8 80 2.3 SE 20 30 11 16 1013.5 1013.6 0.0
30/05:54pm 23.5 23.0 19.9 80 2.3 SE 22 35 12 19 1013.6 - 0.0
30/05:30pm 23.9 23.8 20.0 79 2.5 SE 20 33 11 18 1013.5 - 0.0
30/05:17pm 24.1 23.3 20.1 78 2.6 SE 24 39 13 21 1013.4 - 0.0
30/05:05pm 24.1 24.1 20.1 78 2.6 SE 20 35 11 19 1013.3 - 0.0
30/05:00pm 24.2 23.0 20.0 77 2.7 SE 26 39 14 21 1013.3 - 0.0
30/04:30pm 24.4 24.3 19.9 76 2.9 SE 20 32 11 17 1013.1 - 0.0
30/04:00pm 24.6 24.8 20.1 76 2.9 SE 19 35 10 19 1012.9 - 0.0
30/03:30pm 24.9 23.7 20.0 74 3.2 SE 26 39 14 21 1013.0 - 0.0
30/03:00pm 25.0 23.3 19.7 72 3.4 SE 28 35 15 19 1012.8 1012.8 0.0
30/02:30pm 25.5 24.6 19.9 71 3.6 SE 24 44 13 24 1012.9 - 0.0
30/02:00pm 26.1 25.6 19.9 68 4.0 SE 22 37 12 20 1013.1 - 0.0
30/01:30pm 25.6 23.7 19.4 68 4.0 SE 28 41 15 22 1013.4 - 0.0
30/01:00pm 25.7 23.6 19.7 69 3.9 SE 30 44 16 24 1013.8 - 0.0
30/12:30pm 26.2 23.9 20.1 69 4.0 SE 32 46 17 25 1014.1 - 0.0
30/12:00pm 26.5 24.9 20.0 67 4.2 ESE 28 46 15 25 1014.4 1014.4 0.0
30/11:30am 25.9 23.4 19.7 68 4.0 SE 32 50 17 27 1014.7 - 0.0
30/11:03am 25.9 24.3 20.1 70 3.8 SE 28 46 15 25 1015.0 - 0.0
30/11:00am 26.5 24.6 20.2 68 4.1 SE 30 46 16 25 1015.1 - 0.0
30/10:39am 25.8 24.2 20.1 71 3.7 SE 28 48 15 26 1015.4 - 0.0
30/10:30am 25.3 24.2 20.2 73 3.3 SE 26 46 14 25 1015.4 - 0.0
30/10:00am 25.7 24.1 20.0 71 3.7 SE 28 46 15 25 1015.5 - 0.0
30/09:49am 25.7 24.2 20.2 71 3.6 SE 28 46 15 25 1015.5 - 0.0
30/09:30am 24.9 23.1 19.6 72 3.4 SE 28 44 15 24 1015.5 - 0.0
30/09:00am 24.5 23.0 19.5 73 3.2 SE 26 39 14 21 1015.2 1015.1 0.0
30/08:30am 23.7 22.5 19.3 76 2.8 SE 24 39 13 21 1015.0 - 0.0
30/08:00am 23.5 22.7 19.3 77 2.7 SE 22 39 12 21 1014.6 - 0.0
30/07:30am 23.1 22.2 19.0 78 2.6 SE 22 41 12 22 1014.3 - 0.0
30/07:00am 22.9 22.4 19.0 78 2.5 SE 20 30 11 16 1014.1 - 0.0
30/06:30am 23.1 22.2 19.0 78 2.6 SE 22 37 12 20 1013.8 - 0.0
30/06:00am 23.0 22.1 19.1 78 2.5 SE 22 44 12 24 1013.7 1013.7 0.0
30/05:30am 23.1 22.1 18.8 77 2.7 SE 22 35 12 19 1013.4 - 0.0
30/05:00am 23.0 22.6 18.9 78 2.6 SE 19 30 10 16 1013.3 - 0.0
30/04:30am 23.0 23.0 18.9 78 2.6 SE 17 24 9 13 1013.2 - 0.0
30/04:00am 23.0 22.9 18.7 77 2.7 SE 17 26 9 14 1013.3 - 0.0
30/03:30am 22.5 22.7 18.5 78 2.5 SE 15 22 8 12 1013.4 - 0.0
30/03:00am 22.6 22.6 18.1 76 2.8 SE 15 24 8 13 1013.5 1013.6 0.0
30/02:30am 22.7 23.9 18.2 76 2.8 S 9 19 5 10 1013.9 - 0.0
30/02:00am 22.5 24.1 18.2 76 2.7 SSE 7 15 4 8 1014.2 - 0.0
30/01:30am 22.1 23.8 18.1 78 2.5 S 6 11 3 6 1014.6 - 0.0
30/01:00am 22.2 22.9 18.0 77 2.6 SE 11 17 6 9 1014.8 - 0.0
30/12:30am 22.3 22.3 18.0 76 2.7 SE 15 24 8 13 1015.2 - 0.0
30/12:00am 22.7 22.5 17.7 73 3.1 SE 15 20 8 11 1015.4 1015.5 0.0
 
Date/Time
EST
Temp
°C
App
Temp
°C
Dew
Point
°C
Rel
Hum
%
Delta-T
°C
Wind Press
QNH
hPa
Press
MSL
hPa
Rain since
9am
mm
Dir  Spd
km/h
Gust
km/h
Spd
kts
Gust
kts
29/11:30pm 22.7 23.2 17.5 72 3.2 SE 11 19 6 10 1015.8 - 0.0
29/11:00pm 22.7 22.3 17.2 71 3.4 SE 15 22 8 12 1015.9 - 0.0
29/10:30pm 22.5 22.1 17.1 71 3.3 SE 15 28 8 15 1016.0 - 0.0
29/10:00pm 22.5 21.7 17.1 71 3.3 SSE 17 26 9 14 1016.1 - 0.0
29/09:30pm 22.6 21.4 17.4 72 3.2 SSE 20 33 11 18 1016.1 - 0.0
29/09:00pm 22.9 23.1 17.6 72 3.3 SE 13 30 7 16 1016.1 1016.0 0.0
29/08:30pm 22.9 23.5 17.6 72 3.3 SE 11 19 6 10 1015.9 - 0.0
29/08:00pm 22.9 23.0 17.4 71 3.4 SSE 13 22 7 12 1015.7 - 0.0
29/07:30pm 22.9 22.1 17.2 70 3.5 SE 17 32 9 17 1015.3 - 0.0
29/07:00pm 22.8 21.6 17.1 70 3.5 SE 19 30 10 16 1014.8 - 0.0
29/06:30pm 22.7 21.0 17.2 71 3.4 SE 22 39 12 21 1014.5 - 0.0
29/06:00pm 22.5 21.3 17.1 71 3.3 SE 19 28 10 15 1014.3 1014.2 0.0
29/05:30pm 22.7 21.6 17.2 71 3.4 SE 19 28 10 15 1014.1 - 0.0
29/05:00pm 23.0 22.7 17.3 70 3.5 SE 15 28 8 15 1013.9 - 0.0
29/04:30pm 23.1 21.7 17.1 69 3.7 SE 20 32 11 17 1014.0 - 0.0
29/04:00pm 23.3 21.2 17.1 68 3.8 SE 24 39 13 21 1013.7 - 0.0
29/03:46pm 23.4 20.4 16.9 67 4.0 SE 28 46 15 25 1013.8 - 0.0
29/03:30pm 23.7 21.9 16.9 65 4.2 ESE 22 35 12 19 1013.9 - 0.0
29/03:12pm 24.0 21.0 16.8 64 4.4 SE 28 48 15 26 1013.8 - 0.0
29/03:00pm 23.9 20.9 16.7 64 4.4 ESE 28 41 15 22 1013.8 1013.9 0.0
29/02:30pm 24.7 22.2 17.1 62 4.7 SE 26 39 14 21 1014.0 - 0.0
29/02:00pm 25.3 22.5 17.3 61 5.0 ESE 28 39 15 21 1014.3 - 0.0
29/01:30pm 25.4 22.5 17.0 59 5.2 ESE 28 46 15 25 1014.6 - 0.0
29/01:00pm 25.1 21.7 16.7 59 5.2 SE 30 50 16 27 1015.0 - 0.0
29/12:36pm 25.6 22.8 17.2 59 5.2 SE 28 46 15 25 1015.4 - 0.0
29/12:30pm 25.2 21.8 16.8 59 5.2 SE 30 46 16 25 1015.4 - 0.0
29/12:00pm 24.2 20.7 16.5 62 4.7 SE 30 48 16 26 1015.8 1015.8 0.0
29/11:30am 23.9 20.0 16.5 63 4.5 SE 32 50 17 27 1016.3 - 0.0
29/11:13am 23.9 20.7 16.4 63 4.6 SE 28 52 15 28 1016.3 - 0.0
29/11:00am 23.5 19.9 16.3 64 4.4 SE 30 44 16 24 1016.6 - 0.0
29/10:30am 23.3 19.8 16.6 66 4.1 SE 30 48 16 26 1016.8 - 0.0
29/10:13am 23.3 20.2 16.6 66 4.1 SE 28 46 15 25 1016.8 - 0.0
29/10:00am 23.4 20.8 16.9 67 4.0 SE 26 43 14 23 1016.8 - 0.0
29/09:30am 23.3 20.6 16.6 66 4.1 SE 26 46 14 25 1016.5 - 0.0
29/09:00am 23.1 20.7 16.5 66 4.0 SSE 24 35 13 19 1016.6 1016.5 0.0
29/08:30am 23.3 21.6 17.1 68 3.8 SE 22 35 12 19 1016.3 - 0.0
29/08:00am 22.7 20.8 16.6 68 3.7 SE 22 35 12 19 1016.0 - 0.0
29/07:30am 22.4 20.1 16.7 70 3.5 SE 24 41 13 22 1015.7 - 0.0
29/07:00am 22.3 20.4 16.7 70 3.4 SE 22 33 12 18 1015.6 - 0.0
29/06:30am 22.6 20.9 16.3 67 3.8 SE 20 33 11 18 1015.3 - 0.0
29/06:00am 22.5 20.8 16.2 67 3.8 SE 20 32 11 17 1015.1 1015.0 0.0
29/05:30am 22.7 20.6 16.3 67 3.9 SE 22 35 12 19 1014.8 - 0.0
29/05:00am 22.6 20.6 16.5 68 3.7 SE 22 37 12 20 1014.6 - 0.0
29/04:30am 22.8 20.4 16.4 67 3.9 SE 24 37 13 20 1014.6 - 0.0
29/04:00am 22.9 20.5 16.3 66 4.0 SE 24 37 13 20 1014.7 - 0.0
29/03:30am 22.9 20.6 16.7 68 3.8 SE 24 37 13 20 1014.8 - 0.0
29/03:00am 22.6 20.9 17.1 71 3.4 SE 22 41 12 22 1014.8 1014.8 0.0
29/02:30am 22.4 20.8 17.4 73 3.1 SE 22 33 12 18 1015.0 - 0.0
29/02:00am 22.1 20.6 17.7 76 2.7 SE 22 33 12 18 1015.4 - 0.0
29/01:30am 21.7 20.4 18.2 80 2.2 SSE 22 41 12 22 1015.7 - 0.0
29/01:00am 21.7 20.4 18.2 80 2.2 SE 22 35 12 19 1016.2 - 0.0
29/12:30am 22.3 20.5 17.8 75 2.8 SE 24 48 13 26 1016.5 - 0.0
29/12:00am 22.6 21.8 17.2 71 3.3 SE 17 28 9 15 1016.5 1016.4 0.0
 
Date/Time
EST
Temp
°C
App
Temp
°C
Dew
Point
°C
Rel
Hum
%
Delta-T
°C
Wind Press
QNH
hPa
Press
MSL
hPa
Rain since
9am
mm
Dir  Spd
km/h
Gust
km/h
Spd
kts
Gust
kts
28/11:30pm 22.7 21.2 16.8 69 3.6 SE 20 35 11 19 1016.7 - 0.0
28/11:00pm 22.7 21.2 16.8 69 3.6 SSE 20 28 11 15 1017.1 - 0.0
28/10:30pm 22.7 22.2 16.8 69 3.6 SE 15 24 8 13 1017.4 - 0.0
28/10:00pm 22.9 21.7 17.0 69 3.6 SE 19 35 10 19 1017.4 - 0.0
28/09:30pm 23.0 21.1 16.6 67 3.9 SE 22 35 12 19 1017.5 - 0.0
28/09:00pm 23.0 21.8 17.0 69 3.7 SE 19 32 10 17 1017.4 1017.4 0.0
28/08:30pm 23.1 20.8 16.7 67 3.9 SE 24 39 13 21 1017.1 - 0.0
28/08:00pm 23.0 21.2 17.0 69 3.7 SE 22 37 12 20 1016.9 - 0.0
28/07:30pm 23.0 20.5 17.0 69 3.7 SE 26 43 14 23 1016.6 - 0.0

Other Formats:

Comma delimited format used in spreadsheet applications
http://www.bom.gov.au/fwo/IDQ60801/IDQ60801.95283.axf

JavaScript Object Notation format (JSON) in row-major order
http://www.bom.gov.au/fwo/IDQ60801/IDQ60801.95283.json